Time;durP1;ratioP1;P1;durP2;ratioP2;P2;SDS_P1;SDS_P2;PMS_P1;PMS_P2;Temp;Humidity;BMP_temperature;BMP_pressure;BME280_temperature;BME280_humidity;BME280_pressure;Samples;Min_cycle;Max_cycle;Signal;HPM_P1;HPM_P2
2021/06/10 00:00:43;;;;;;;13.50;12.40;;;;;;;;;;1452284;41;20415;-85
2021/06/10 00:01:46;;;;;;;12.43;11.32;;;;;;;;;;1952074;23;21815;-85
2021/06/10 00:02:50;;;;;;;13.52;12.23;;;;;;;;;;1447456;41;20434;-85
2021/06/10 00:03:53;;;;;;;12.77;11.48;;;;;;;;;;1447239;41;20410;-86
2021/06/10 00:04:55;;;;;;;11.75;10.73;;;;;;;;;;1446746;41;20413;-85
2021/06/10 00:05:57;;;;;;;13.25;11.95;;;;;;;;;;1446577;41;20429;-86
2021/06/10 00:07:01;;;;;;;11.70;10.65;;;;;;;;;;1618201;23;20413;-86
2021/06/10 00:08:07;;;;;;;11.48;10.52;;;;;;;;;;2008249;23;20378;-85
2021/06/10 00:09:09;;;;;;;12.75;11.45;;;;;;;;;;1756611;23;20469;-85
2021/06/10 00:49:56;;;;;;;9.98;9.18;;;;;;;;;;1437810;41;20456;-89
2021/06/10 00:50:57;;;;;;;10.35;9.45;;;;;;;;;;1439308;41;20444;-88
2021/06/10 00:51:59;;;;;;;10.68;9.77;;;;;;;;;;1438693;41;20424;-88
2021/06/10 00:53:01;;;;;;;10.68;9.68;;;;;;;;;;1438164;41;20470;-89
2021/06/10 00:54:13;;;;;;;;;;;;;;;;;;;;;
2021/06/10 00:55:15;;;;;;;11.05;10.05;;;;;;;;;;1579076;24;20436;-85
2021/06/10 00:56:17;;;;;;;10.85;9.95;;;;;;;;;;1435412;41;20482;-85
2021/06/10 00:59:39;;;;;;;10.57;9.68;;;;;;;;;;1760193;24;20546;-86
2021/06/10 01:16:41;;;;;;;9.90;9.10;;;;;;;;;;2390335;24;20355;31
2021/06/10 01:27:31;;;;;;;9.00;8.30;;;;;;;;;;1431946;41;20436;-85
2021/06/10 01:28:39;;;;;;;9.18;8.38;;;;;;;;;;1433035;41;20417;-85
2021/06/10 01:29:41;;;;;;;10.53;9.53;;;;;;;;;;1433022;41;20380;-85
2021/06/10 01:30:47;;;;;;;10.35;9.50;;;;;;;;;;1429685;41;20417;-85
2021/06/10 01:31:51;;;;;;;9.80;9.00;;;;;;;;;;1432429;41;20431;-85
2021/06/10 01:33:09;;;;;;;10.52;9.52;;;;;;;;;;1432585;41;20517;-85
2021/06/10 01:34:14;;;;;;;10.57;9.68;;;;;;;;;;1432387;41;20406;-85
2021/06/10 01:35:19;;;;;;;10.55;9.65;;;;;;;;;;1432346;41;20415;-84
2021/06/10 01:36:29;;;;;;;10.00;9.23;;;;;;;;;;1735883;24;20453;-86
2021/06/10 01:37:35;;;;;;;10.70;9.85;;;;;;;;;;1433869;41;20410;-87
2021/06/10 01:38:39;;;;;;;10.65;9.75;;;;;;;;;;1432007;41;20435;-87
2021/06/10 01:39:43;;;;;;;11.13;10.13;;;;;;;;;;1431139;41;20417;-87
2021/06/10 01:48:27;;;;;;;10.55;9.65;;;;;;;;;;1669042;24;20481;-85
2021/06/10 01:55:27;;;;;;;9.70;8.88;;;;;;;;;;1879858;24;20419;-85
2021/06/10 02:05:10;;;;;;;9.20;8.50;;;;;;;;;;1433523;41;20451;-87
2021/06/10 02:06:12;;;;;;;10.05;9.10;;;;;;;;;;1558852;24;20433;-92
2021/06/10 02:07:14;;;;;;;9.80;8.95;;;;;;;;;;1445848;41;20785;-90
2021/06/10 02:08:19;;;;;;;10.10;9.30;;;;;;;;;;1479423;23;20425;-89
2021/06/10 02:09:22;;;;;;;10.18;9.18;;;;;;;;;;1441651;41;20760;-85
2021/06/10 02:10:26;;;;;;;9.63;8.82;;;;;;;;;;1438881;41;20478;-88
2021/06/10 02:11:28;;;;;;;9.90;9.00;;;;;;;;;;1438712;41;20824;-90
2021/06/10 02:12:30;;;;;;;10.43;9.45;;;;;;;;;;1437642;41;20429;-92
2021/06/10 02:13:33;;;;;;;9.05;8.23;;;;;;;;;;1433810;41;20442;-90
2021/06/10 02:14:35;;;;;;;10.70;9.60;;;;;;;;;;1437793;41;20428;-86
2021/06/10 02:15:39;;;;;;;9.40;8.52;;;;;;;;;;1434778;41;20512;-90
2021/06/10 02:16:42;;;;;;;9.00;8.27;;;;;;;;;;1436068;41;20428;-90
2021/06/10 02:17:46;;;;;;;9.03;8.33;;;;;;;;;;1436258;41;20886;-90
2021/06/10 02:18:49;;;;;;;8.80;8.10;;;;;;;;;;1432673;41;20430;-91
2021/06/10 02:19:51;;;;;;;9.05;8.25;;;;;;;;;;1436290;41;20423;-87
2021/06/10 02:20:53;;;;;;;8.98;8.30;;;;;;;;;;1439133;41;20534;-91
2021/06/10 02:21:54;;;;;;;9.32;8.52;;;;;;;;;;1440408;41;20427;-91
2021/06/10 02:22:56;;;;;;;8.85;8.15;;;;;;;;;;1436435;41;20440;-88
2021/06/10 02:23:58;;;;;;;9.25;8.65;;;;;;;;;;1436626;41;20428;-89
2021/06/10 02:25:01;;;;;;;8.13;7.43;;;;;;;;;;1440253;41;20505;-86
2021/06/10 02:26:04;;;;;;;9.48;8.57;;;;;;;;;;1437730;41;20432;-90
2021/06/10 02:27:06;;;;;;;9.73;8.93;;;;;;;;;;1435758;41;20423;-91
2021/06/10 02:28:09;;;;;;;8.53;7.83;;;;;;;;;;1438502;41;20551;-87
2021/06/10 02:29:11;;;;;;;8.50;7.90;;;;;;;;;;1438634;41;20443;-88
2021/06/10 02:30:15;;;;;;;8.85;8.05;;;;;;;;;;1434754;41;20431;-87
2021/06/10 02:31:17;;;;;;;7.88;7.30;;;;;;;;;;1436965;41;20433;-92
2021/06/10 02:32:19;;;;;;;8.38;7.63;;;;;;;;;;1437456;41;20443;-88
2021/06/10 02:33:24;;;;;;;8.38;7.68;;;;;;;;;;1433310;41;20964;-86
2021/06/10 02:34:26;;;;;;;8.40;7.70;;;;;;;;;;1435269;41;20451;-87
2021/06/10 02:35:28;;;;;;;7.40;6.80;;;;;;;;;;1442861;41;20419;-88
2021/06/10 02:36:30;;;;;;;8.48;7.70;;;;;;;;;;1442810;41;20419;-86
2021/06/10 02:37:33;;;;;;;7.53;6.93;;;;;;;;;;1435527;41;20423;-87
2021/06/10 02:38:36;;;;;;;6.82;6.22;;;;;;;;;;1439728;41;20436;-86
2021/06/10 02:39:44;;;;;;;7.13;6.53;;;;;;;;;;1442806;41;20426;-87
2021/06/10 02:40:50;;;;;;;7.55;6.88;;;;;;;;;;1435703;41;20409;-87
2021/06/10 02:41:53;;;;;;;6.40;5.90;;;;;;;;;;1439119;41;20433;-91
2021/06/10 02:42:59;;;;;;;6.32;5.93;;;;;;;;;;1434929;41;20446;-90
2021/06/10 02:44:01;;;;;;;6.82;6.18;;;;;;;;;;1434875;41;20482;-88
2021/06/10 02:45:05;;;;;;;6.82;6.20;;;;;;;;;;1438108;41;20394;-88
2021/06/10 02:46:10;;;;;;;7.05;6.35;;;;;;;;;;1438098;41;20413;-91
2021/06/10 02:48:16;;;;;;;7.55;6.55;;;;;;;;;;1437477;41;20520;-92
2021/06/10 02:49:19;;;;;;;8.65;6.32;;;;;;;;;;1438685;41;20676;-90
2021/06/10 02:50:22;;;;;;;7.22;6.55;;;;;;;;;;1437554;41;20787;-84
2021/06/10 02:51:28;;;;;;;6.57;6.07;;;;;;;;;;1430312;41;20430;-87
2021/06/10 02:52:31;;;;;;;7.28;6.68;;;;;;;;;;1431095;41;20451;-84
2021/06/10 02:53:35;;;;;;;6.70;6.18;;;;;;;;;;1466624;24;20455;-87
2021/06/10 02:54:36;;;;;;;7.27;6.53;;;;;;;;;;1726580;24;20638;-85
2021/06/10 02:55:38;;;;;;;8.50;7.07;;;;;;;;;;1540913;24;20442;-86
2021/06/10 02:56:42;;;;;;;7.75;6.78;;;;;;;;;;1443904;41;20419;-85
2021/06/10 02:57:57;;;;;;;7.30;6.55;;;;;;;;;;1439797;41;20463;-85
2021/06/10 02:59:00;;;;;;;8.63;7.72;;;;;;;;;;1440215;41;20415;-87
2021/06/10 03:00:05;;;;;;;6.57;6.00;;;;;;;;;;1436541;41;20414;-88
2021/06/10 03:01:08;;;;;;;7.50;6.80;;;;;;;;;;1573767;24;20461;-91
2021/06/10 03:02:12;;;;;;;7.20;6.68;;;;;;;;;;1439233;41;20428;-92
2021/06/10 03:03:15;;;;;;;7.82;7.20;;;;;;;;;;1430355;41;20484;-89
2021/06/10 03:04:17;;;;;;;8.18;7.38;;;;;;;;;;1425029;41;20717;-87
2021/06/10 03:22:34;;;;;;;7.28;6.68;;;;;;;;;;1849664;23;20440;-86
2021/06/10 03:23:36;;;;;;;8.05;7.40;;;;;;;;;;1437615;41;20811;-86
2021/06/10 03:24:40;;;;;;;7.20;6.50;;;;;;;;;;1470955;24;20468;-86
2021/06/10 03:25:50;;;;;;;7.32;6.63;;;;;;;;;;1863059;24;20461;-91
2021/06/10 03:26:56;;;;;;;7.35;6.82;;;;;;;;;;1439020;41;20409;-86
2021/06/10 03:27:58;;;;;;;7.53;6.57;;;;;;;;;;1434654;41;20438;-88
2021/06/10 03:29:03;;;;;;;8.05;6.97;;;;;;;;;;1716991;23;21721;-87
2021/06/10 03:30:07;;;;;;;8.13;7.03;;;;;;;;;;1586193;24;20405;-89
2021/06/10 03:31:09;;;;;;;7.70;6.90;;;;;;;;;;1430485;41;20427;-87
2021/06/10 03:32:13;;;;;;;8.40;7.32;;;;;;;;;;1430149;41;20444;-87
2021/06/10 03:33:16;;;;;;;7.93;6.93;;;;;;;;;;1430593;41;20433;-88
2021/06/10 03:34:18;;;;;;;10.20;6.68;;;;;;;;;;1431038;41;20416;-87
2021/06/10 03:35:21;;;;;;;6.03;5.57;;;;;;;;;;1435261;41;20422;-86
2021/06/10 03:36:25;;;;;;;7.00;6.40;;;;;;;;;;1741746;24;20439;-85
2021/06/10 03:37:27;;;;;;;8.25;6.38;;;;;;;;;;1441874;41;20415;-86
2021/06/10 03:38:29;;;;;;;7.78;6.20;;;;;;;;;;1439732;41;20434;-91
2021/06/10 03:39:31;;;;;;;7.43;6.75;;;;;;;;;;1434419;41;20436;-88
2021/06/10 03:40:36;;;;;;;7.18;6.45;;;;;;;;;;1432726;41;20440;-90
2021/06/10 03:41:40;;;;;;;8.95;7.10;;;;;;;;;;1435943;41;20409;-89
2021/06/10 03:42:42;;;;;;;8.00;6.30;;;;;;;;;;1431544;41;20427;-90
2021/06/10 03:43:45;;;;;;;7.97;6.68;;;;;;;;;;1437392;41;20437;-87
2021/06/10 03:44:48;;;;;;;7.03;6.43;;;;;;;;;;1443215;41;20446;-86
2021/06/10 03:45:50;;;;;;;6.60;5.95;;;;;;;;;;1666284;24;20428;-89
2021/06/10 03:46:53;;;;;;;7.00;6.40;;;;;;;;;;1434623;41;20427;-88
2021/06/10 03:47:55;;;;;;;6.63;6.03;;;;;;;;;;1434827;41;20768;-90
2021/06/10 03:48:57;;;;;;;6.95;6.35;;;;;;;;;;1430523;41;20432;-88
2021/06/10 03:50:00;;;;;;;7.80;7.10;;;;;;;;;;1429708;41;20432;-86
2021/06/10 03:51:09;;;;;;;9.23;7.27;;;;;;;;;;1427355;41;20432;-89
2021/06/10 03:52:11;;;;;;;7.27;6.67;;;;;;;;;;1426779;41;20548;-91
2021/06/10 03:53:12;;;;;;;7.72;7.03;;;;;;;;;;1423529;41;20499;-90
2021/06/10 03:54:16;;;;;;;8.65;6.63;;;;;;;;;;1427644;41;20413;-89
2021/06/10 03:55:17;;;;;;;7.15;6.55;;;;;;;;;;1430669;41;20856;-91
2021/06/10 03:56:19;;;;;;;8.20;6.57;;;;;;;;;;1431697;41;20490;-90
2021/06/10 03:57:21;;;;;;;7.85;6.43;;;;;;;;;;1428688;41;20447;-89
2021/06/10 03:58:23;;;;;;;6.65;6.00;;;;;;;;;;1428753;41;20427;-89
2021/06/10 03:59:24;;;;;;;6.93;6.28;;;;;;;;;;1429814;41;20749;-87
2021/06/10 04:00:27;;;;;;;6.80;6.05;;;;;;;;;;1428699;41;20446;-87
2021/06/10 04:01:28;;;;;;;8.30;6.57;;;;;;;;;;1433689;41;20429;-87
2021/06/10 04:02:30;;;;;;;6.82;6.22;;;;;;;;;;1436667;41;20419;-91
2021/06/10 04:03:32;;;;;;;6.93;6.23;;;;;;;;;;1435777;41;20580;-89
2021/06/10 04:04:34;;;;;;;7.80;6.35;;;;;;;;;;1436113;41;20435;-89
2021/06/10 04:05:35;;;;;;;6.73;6.03;;;;;;;;;;1431175;41;20845;-89
2021/06/10 04:06:38;;;;;;;6.35;5.53;;;;;;;;;;1432645;41;20430;-88
2021/06/10 04:07:39;;;;;;;7.65;5.60;;;;;;;;;;1431554;41;20968;-91
2021/06/10 04:08:42;;;;;;;5.30;4.80;;;;;;;;;;1634767;23;20411;-90
2021/06/10 04:09:44;;;;;;;6.00;5.40;;;;;;;;;;1442372;41;20447;-86
2021/06/10 04:10:46;;;;;;;5.57;4.97;;;;;;;;;;1433541;41;20453;-88
2021/06/10 04:11:48;;;;;;;6.18;5.43;;;;;;;;;;1466286;24;20450;-88
2021/06/10 04:12:50;;;;;;;6.50;5.15;;;;;;;;;;1438404;41;20506;-90
2021/06/10 04:13:52;;;;;;;6.35;5.22;;;;;;;;;;1438667;41;20429;-89
2021/06/10 04:16:15;;;;;;;5.45;4.70;;;;;;;;;;1708594;24;20437;-87
2021/06/10 04:17:18;;;;;;;5.23;4.40;;;;;;;;;;1501585;24;20645;-87
2021/06/10 04:28:32;;;;;;;6.05;4.20;;;;;;;;;;2210858;24;20359;-86
2021/06/10 04:33:34;;;;;;;8.98;3.78;;;;;;;;;;2406914;24;21752;31
2021/06/10 04:34:53;;;;;;;5.87;3.30;;;;;;;;;;2248914;24;20431;31
2021/06/10 04:36:11;;;;;;;5.20;3.55;;;;;;;;;;2270645;23;20403;31
2021/06/10 04:37:47;;;;;;;4.97;3.70;;;;;;;;;;1994719;24;21475;31
2021/06/10 04:42:54;;;;;;;3.88;3.42;;;;;;;;;;2196635;23;21928;-88
2021/06/10 04:43:56;;;;;;;3.72;3.33;;;;;;;;;;1429289;41;20456;-92
2021/06/10 04:44:58;;;;;;;5.32;4.10;;;;;;;;;;1427582;41;20670;-87
2021/06/10 04:46:00;;;;;;;4.75;3.67;;;;;;;;;;1429596;41;20427;-90
2021/06/10 04:47:04;;;;;;;5.10;3.88;;;;;;;;;;1433637;41;20946;-91
2021/06/10 04:49:16;;;;;;;4.82;3.08;;;;;;;;;;1430859;41;20435;-87
2021/06/10 04:50:18;;;;;;;6.60;4.10;;;;;;;;;;1434317;41;20414;-89
2021/06/10 04:51:21;;;;;;;4.20;3.83;;;;;;;;;;1432906;41;20437;-90
2021/06/10 04:52:23;;;;;;;6.97;4.25;;;;;;;;;;1433061;41;20436;-89
2021/06/10 04:53:24;;;;;;;5.32;4.10;;;;;;;;;;1434137;41;20502;-91
2021/06/10 04:54:27;;;;;;;9.98;4.15;;;;;;;;;;1434430;41;20451;-87
2021/06/10 04:55:29;;;;;;;9.48;4.55;;;;;;;;;;1436696;41;20425;-86
2021/06/10 04:56:31;;;;;;;5.35;4.03;;;;;;;;;;1476688;24;20442;-86
2021/06/10 04:57:35;;;;;;;9.43;4.82;;;;;;;;;;1443255;41;20415;-86
2021/06/10 04:58:38;;;;;;;6.65;4.63;;;;;;;;;;1691687;24;20476;-86
2021/06/10 04:59:40;;;;;;;10.60;4.50;;;;;;;;;;1450376;40;20587;-87
2021/06/10 05:00:42;;;;;;;6.75;5.15;;;;;;;;;;1451707;40;20460;-87
2021/06/10 05:01:44;;;;;;;6.18;4.68;;;;;;;;;;1557464;24;20458;-85
2021/06/10 05:02:46;;;;;;;8.05;5.05;;;;;;;;;;1436087;41;20517;-86
2021/06/10 05:03:48;;;;;;;7.97;5.28;;;;;;;;;;1439195;41;20489;-89
2021/06/10 05:04:52;;;;;;;9.82;5.22;;;;;;;;;;1440091;41;20432;-87
2021/06/10 05:05:54;;;;;;;7.97;5.22;;;;;;;;;;1785719;24;22362;-86
2021/06/10 05:07:04;;;;;;;10.25;5.68;;;;;;;;;;1729425;24;21395;-88
2021/06/10 05:08:09;;;;;;;7.97;5.45;;;;;;;;;;1431781;41;20440;-88
2021/06/10 05:09:10;;;;;;;7.20;5.18;;;;;;;;;;1433772;41;20536;-89
2021/06/10 05:10:13;;;;;;;8.38;5.35;;;;;;;;;;1434683;41;20407;-92
2021/06/10 05:11:15;;;;;;;7.18;5.63;;;;;;;;;;1435104;41;20447;-87
2021/06/10 05:12:16;;;;;;;6.68;6.05;;;;;;;;;;1437421;41;20464;-91
2021/06/10 05:13:18;;;;;;;7.07;5.68;;;;;;;;;;1436383;41;20440;-89
2021/06/10 05:14:22;;;;;;;8.93;5.38;;;;;;;;;;1433395;41;20438;-87
2021/06/10 05:15:24;;;;;;;7.35;5.22;;;;;;;;;;1434358;41;20426;-88
2021/06/10 05:16:27;;;;;;;10.52;5.70;;;;;;;;;;1437634;41;20472;-88
2021/06/10 05:17:29;;;;;;;8.23;5.57;;;;;;;;;;1434726;41;20426;-88
2021/06/10 05:18:31;;;;;;;9.68;5.60;;;;;;;;;;1437880;41;21116;-87
2021/06/10 05:19:33;;;;;;;6.72;5.38;;;;;;;;;;1438897;41;20409;-86
2021/06/10 05:20:35;;;;;;;9.23;6.00;;;;;;;;;;1433983;41;20433;-88
2021/06/10 05:21:37;;;;;;;6.63;5.30;;;;;;;;;;1428769;41;20451;-91
2021/06/10 05:22:38;;;;;;;8.65;6.55;;;;;;;;;;1434746;41;20418;-91
2021/06/10 05:23:42;;;;;;;10.02;5.95;;;;;;;;;;1433989;41;20433;-88
2021/06/10 05:24:54;;;;;;;7.15;5.60;;;;;;;;;;1435027;41;20451;-86
2021/06/10 05:25:55;;;;;;;8.73;5.70;;;;;;;;;;1604302;24;20433;-86
2021/06/10 05:26:57;;;;;;;8.35;5.50;;;;;;;;;;1508321;24;20443;-88
2021/06/10 05:28:00;;;;;;;10.98;6.43;;;;;;;;;;1439431;41;20437;-86
2021/06/10 05:29:03;;;;;;;12.07;6.47;;;;;;;;;;1435837;41;20457;-87
2021/06/10 05:30:08;;;;;;;9.52;6.22;;;;;;;;;;1436226;41;20418;-86
2021/06/10 05:31:10;;;;;;;9.38;6.47;;;;;;;;;;1497393;23;20447;-88
2021/06/10 05:32:12;;;;;;;9.20;5.97;;;;;;;;;;1443074;41;20439;-86
2021/06/10 05:33:13;;;;;;;8.45;6.35;;;;;;;;;;1444072;41;20442;-88
2021/06/10 05:34:15;;;;;;;6.95;5.60;;;;;;;;;;1444153;41;20435;-91
2021/06/10 05:35:18;;;;;;;7.78;6.55;;;;;;;;;;1441055;41;20813;-93
2021/06/10 05:36:20;;;;;;;7.38;5.85;;;;;;;;;;1441798;41;20443;-91
2021/06/10 05:37:22;;;;;;;9.05;6.60;;;;;;;;;;1437906;41;20421;-88
2021/06/10 05:38:24;;;;;;;8.38;6.85;;;;;;;;;;1435255;41;20415;-90
2021/06/10 05:39:33;;;;;;;8.68;6.68;;;;;;;;;;1435513;41;20435;-87
2021/06/10 05:40:35;;;;;;;10.87;6.87;;;;;;;;;;1432759;41;20551;-88
2021/06/10 05:41:41;;;;;;;12.90;6.78;;;;;;;;;;1435491;41;20421;-90
2021/06/10 05:42:44;;;;;;;10.60;6.85;;;;;;;;;;1433993;41;20441;-92
2021/06/10 05:43:46;;;;;;;8.60;7.13;;;;;;;;;;1437872;41;20440;-90
2021/06/10 05:46:01;;;;;;;7.55;6.70;;;;;;;;;;1507363;24;20437;-87
2021/06/10 05:47:03;;;;;;;12.10;6.40;;;;;;;;;;1438141;41;20481;-90
2021/06/10 05:48:06;;;;;;;11.65;7.20;;;;;;;;;;1434932;41;20475;-87
2021/06/10 05:49:08;;;;;;;7.35;6.63;;;;;;;;;;1434953;41;20684;-87
2021/06/10 05:51:21;;;;;;;12.38;6.97;;;;;;;;;;1742551;24;20947;-91
2021/06/10 05:52:25;;;;;;;9.30;6.47;;;;;;;;;;1439037;41;20420;-90
2021/06/10 05:53:29;;;;;;;8.07;6.57;;;;;;;;;;1434235;41;20426;-90
2021/06/10 05:54:31;;;;;;;13.18;7.72;;;;;;;;;;1433772;41;20424;-89
2021/06/10 05:55:33;;;;;;;9.27;7.68;;;;;;;;;;1432033;41;20642;-86
2021/06/10 05:56:35;;;;;;;11.45;7.75;;;;;;;;;;1435051;41;20868;-86
2021/06/10 05:57:37;;;;;;;9.07;7.00;;;;;;;;;;1437207;41;20438;-88
2021/06/10 05:58:39;;;;;;;10.63;7.30;;;;;;;;;;1440684;41;20434;-91
2021/06/10 05:59:42;;;;;;;12.95;7.32;;;;;;;;;;1440238;41;20558;-90
2021/06/10 06:00:44;;;;;;;12.15;7.85;;;;;;;;;;1434031;41;20438;-89
2021/06/10 06:01:46;;;;;;;14.70;8.38;;;;;;;;;;1437766;41;20461;-89
2021/06/10 06:02:48;;;;;;;10.10;7.32;;;;;;;;;;1432851;41;20430;-91
2021/06/10 06:03:50;;;;;;;9.75;7.40;;;;;;;;;;1433685;41;20478;-87
2021/06/10 06:04:51;;;;;;;8.87;7.50;;;;;;;;;;1429882;41;20452;-86
2021/06/10 06:05:56;;;;;;;10.35;7.25;;;;;;;;;;1434875;41;20441;-88
2021/06/10 06:06:57;;;;;;;10.18;7.75;;;;;;;;;;1439358;41;20412;-85
2021/06/10 06:07:59;;;;;;;10.75;7.55;;;;;;;;;;1435745;41;20435;-85
2021/06/10 06:09:06;;;;;;;12.35;7.63;;;;;;;;;;1439887;41;20429;-85
2021/06/10 06:10:14;;;;;;;9.88;7.80;;;;;;;;;;1438405;41;20414;-86
2021/06/10 06:11:20;;;;;;;9.73;7.63;;;;;;;;;;1439201;41;20503;-92
2021/06/10 06:12:23;;;;;;;12.00;7.45;;;;;;;;;;1439140;41;20421;-89
2021/06/10 06:13:43;;;;;;;10.05;7.65;;;;;;;;;;1442419;41;20423;-89
2021/06/10 06:14:45;;;;;;;11.18;7.85;;;;;;;;;;1441729;41;20418;-88
2021/06/10 06:15:50;;;;;;;11.18;7.65;;;;;;;;;;1443154;41;20447;-89
2021/06/10 06:18:07;;;;;;;9.10;7.65;;;;;;;;;;1723763;24;20789;-88
2021/06/10 06:22:26;;;;;;;9.90;7.65;;;;;;;;;;1450952;24;20441;-90
2021/06/10 06:23:31;;;;;;;10.98;7.82;;;;;;;;;;1759847;23;20477;-88
2021/06/10 06:27:04;;;;;;;12.18;8.43;;;;;;;;;;2214512;24;21656;31
2021/06/10 06:28:08;;;;;;;12.52;7.97;;;;;;;;;;1737776;24;20461;-91
2021/06/10 06:29:10;;;;;;;12.77;8.60;;;;;;;;;;1442144;41;20532;-84
2021/06/10 06:30:18;;;;;;;13.70;8.30;;;;;;;;;;1438003;41;20435;-83
2021/06/10 06:31:21;;;;;;;10.20;7.55;;;;;;;;;;1438315;41;20422;-86
2021/06/10 06:32:23;;;;;;;10.55;7.53;;;;;;;;;;1437497;41;20455;-86
2021/06/10 06:33:24;;;;;;;11.90;8.35;;;;;;;;;;1433479;41;20834;-83
2021/06/10 06:34:26;;;;;;;13.60;7.72;;;;;;;;;;1433809;41;20702;-86
2021/06/10 06:35:28;;;;;;;10.15;7.72;;;;;;;;;;1438027;41;20428;-84
2021/06/10 06:36:30;;;;;;;10.45;7.68;;;;;;;;;;1429778;41;20462;-84
2021/06/10 06:37:32;;;;;;;10.93;7.75;;;;;;;;;;1433306;41;20468;-84
2021/06/10 06:38:34;;;;;;;10.40;7.93;;;;;;;;;;1445491;41;20420;-84
2021/06/10 06:39:35;;;;;;;12.57;7.90;;;;;;;;;;1441090;41;20473;-84
2021/06/10 06:40:38;;;;;;;10.35;7.75;;;;;;;;;;1436048;41;20427;-84
2021/06/10 06:41:40;;;;;;;15.25;8.27;;;;;;;;;;1436634;41;20435;-84
2021/06/10 06:42:42;;;;;;;10.52;7.82;;;;;;;;;;1433845;41;20425;-84
2021/06/10 06:43:44;;;;;;;11.80;7.97;;;;;;;;;;1437807;41;20427;-83
2021/06/10 06:44:51;;;;;;;9.43;8.25;;;;;;;;;;1441950;41;20406;-83
2021/06/10 06:45:52;;;;;;;11.98;7.90;;;;;;;;;;1437028;41;20468;-83
2021/06/10 06:46:55;;;;;;;11.75;8.23;;;;;;;;;;1437351;41;20526;-82
2021/06/10 06:47:57;;;;;;;10.43;6.65;;;;;;;;;;1437282;41;20576;-83
2021/06/10 06:48:59;;;;;;;13.60;7.45;;;;;;;;;;1430311;41;20503;-84
2021/06/10 06:50:01;;;;;;;8.90;6.97;;;;;;;;;;1431099;41;20879;-82
2021/06/10 06:51:05;;;;;;;13.00;8.00;;;;;;;;;;1444360;41;20563;-82
2021/06/10 06:52:06;;;;;;;10.00;7.95;;;;;;;;;;1441465;41;20437;-83
2021/06/10 06:53:08;;;;;;;12.73;7.97;;;;;;;;;;1437334;41;20439;-84
2021/06/10 06:54:10;;;;;;;8.85;7.25;;;;;;;;;;1438146;41;20498;-84
2021/06/10 06:55:12;;;;;;;10.50;7.68;;;;;;;;;;1437960;41;20809;-84
2021/06/10 06:56:13;;;;;;;13.45;8.02;;;;;;;;;;1433569;41;20417;-83
2021/06/10 06:57:17;;;;;;;8.90;7.38;;;;;;;;;;1427340;41;20436;-84
2021/06/10 06:58:24;;;;;;;17.00;9.27;;;;;;;;;;1431849;41;20429;-83
2021/06/10 06:59:26;;;;;;;10.32;7.80;;;;;;;;;;1435091;41;20807;-84
2021/06/10 07:00:28;;;;;;;11.65;8.45;;;;;;;;;;1435582;41;20440;-85
2021/06/10 07:01:29;;;;;;;12.45;9.35;;;;;;;;;;1430738;41;20482;-84
2021/06/10 07:02:31;;;;;;;12.10;8.35;;;;;;;;;;1430588;41;20435;-85
2021/06/10 07:03:32;;;;;;;9.52;7.93;;;;;;;;;;1430868;41;20434;-85
2021/06/10 07:04:34;;;;;;;10.05;8.00;;;;;;;;;;1432137;41;20431;-85
2021/06/10 07:05:36;;;;;;;13.93;8.40;;;;;;;;;;1431587;41;20942;-85
2021/06/10 07:06:38;;;;;;;9.57;7.88;;;;;;;;;;1435704;41;20759;-83
2021/06/10 07:07:39;;;;;;;11.77;7.63;;;;;;;;;;1443293;41;20517;-84
2021/06/10 07:08:41;;;;;;;11.38;8.32;;;;;;;;;;1435857;41;20728;-85
2021/06/10 07:09:43;;;;;;;11.07;7.75;;;;;;;;;;1429966;41;20461;-82
2021/06/10 07:10:44;;;;;;;9.90;7.72;;;;;;;;;;1438555;41;21016;-82
2021/06/10 07:11:46;;;;;;;9.70;8.10;;;;;;;;;;1437819;41;20448;-82
2021/06/10 07:12:48;;;;;;;9.98;8.10;;;;;;;;;;1433762;41;20441;-81
2021/06/10 07:13:50;;;;;;;12.40;8.23;;;;;;;;;;1437879;41;20552;-82
2021/06/10 07:14:51;;;;;;;12.88;8.93;;;;;;;;;;1433614;41;20464;-83
2021/06/10 07:15:54;;;;;;;10.35;9.00;;;;;;;;;;1437635;41;20462;-83
2021/06/10 07:16:55;;;;;;;12.80;9.70;;;;;;;;;;1441337;41;20476;-84
2021/06/10 07:17:57;;;;;;;9.68;8.65;;;;;;;;;;1441609;41;20445;-83
2021/06/10 07:18:59;;;;;;;11.80;8.70;;;;;;;;;;1433402;41;20611;-84
2021/06/10 07:20:01;;;;;;;9.25;8.27;;;;;;;;;;1430156;41;20506;-83
2021/06/10 07:21:03;;;;;;;11.85;8.82;;;;;;;;;;1433465;41;20437;-84
2021/06/10 07:22:05;;;;;;;8.95;7.97;;;;;;;;;;1442308;41;20430;-84
2021/06/10 07:23:15;;;;;;;10.23;8.70;;;;;;;;;;1436891;41;20419;-83
2021/06/10 07:24:17;;;;;;;8.88;7.78;;;;;;;;;;1437927;41;20431;-84
2021/06/10 07:25:20;;;;;;;12.07;8.35;;;;;;;;;;1439332;41;20434;-84
2021/06/10 07:26:22;;;;;;;11.30;8.13;;;;;;;;;;1441806;41;20457;-84
2021/06/10 07:27:25;;;;;;;10.32;7.32;;;;;;;;;;1442166;41;20425;-85
2021/06/10 07:28:27;;;;;;;9.13;7.35;;;;;;;;;;1434512;41;20491;-84
2021/06/10 07:29:29;;;;;;;7.68;6.75;;;;;;;;;;1431759;41;20465;-85
2021/06/10 07:30:34;;;;;;;7.28;6.55;;;;;;;;;;1429164;41;20674;-84
2021/06/10 07:31:36;;;;;;;9.57;6.65;;;;;;;;;;1429639;41;20423;-84
2021/06/10 07:32:38;;;;;;;6.97;6.28;;;;;;;;;;1433068;41;20895;-84
2021/06/10 07:33:40;;;;;;;9.45;6.47;;;;;;;;;;1429510;41;20437;-83
2021/06/10 07:34:42;;;;;;;9.35;7.18;;;;;;;;;;1433420;41;20437;-83
2021/06/10 07:35:44;;;;;;;9.73;7.35;;;;;;;;;;1436798;41;21296;-85
2021/06/10 07:36:46;;;;;;;10.07;7.47;;;;;;;;;;1432586;41;20436;-84
2021/06/10 07:37:52;;;;;;;8.47;7.57;;;;;;;;;;1428970;41;20491;-83
2021/06/10 07:38:54;;;;;;;8.55;7.47;;;;;;;;;;1433204;41;20417;-83
2021/06/10 07:39:56;;;;;;;12.18;7.18;;;;;;;;;;1427981;41;20431;-83
2021/06/10 07:41:00;;;;;;;8.30;7.45;;;;;;;;;;1430348;41;20993;-83
2021/06/10 07:42:02;;;;;;;8.13;6.85;;;;;;;;;;1435653;41;20450;-83
2021/06/10 07:43:05;;;;;;;11.75;7.38;;;;;;;;;;1434430;41;21056;-83
2021/06/10 07:44:07;;;;;;;12.90;7.40;;;;;;;;;;1436745;41;20582;-82
2021/06/10 07:45:12;;;;;;;8.85;7.18;;;;;;;;;;1428191;41;20430;-83
2021/06/10 07:46:14;;;;;;;10.32;7.55;;;;;;;;;;1428625;41;20443;-83
2021/06/10 07:47:17;;;;;;;8.85;7.57;;;;;;;;;;1431808;41;20907;-83
2021/06/10 07:48:22;;;;;;;9.93;6.93;;;;;;;;;;1426206;41;20523;-83
2021/06/10 07:49:24;;;;;;;15.35;7.75;;;;;;;;;;1425172;41;21242;-83
2021/06/10 07:50:27;;;;;;;9.07;7.80;;;;;;;;;;1433485;41;20425;-83
2021/06/10 07:51:36;;;;;;;11.50;8.45;;;;;;;;;;1433029;41;20429;-83
2021/06/10 07:52:38;;;;;;;10.70;7.85;;;;;;;;;;1428559;41;20515;-83
2021/06/10 07:53:42;;;;;;;11.43;7.47;;;;;;;;;;1432328;41;20674;-84
2021/06/10 07:54:43;;;;;;;10.87;7.70;;;;;;;;;;1436131;41;20446;-84
2021/06/10 07:55:52;;;;;;;11.02;7.47;;;;;;;;;;1427617;41;21010;-84
2021/06/10 07:56:54;;;;;;;11.55;8.00;;;;;;;;;;1429876;41;20817;-83
2021/06/10 07:58:00;;;;;;;12.35;8.30;;;;;;;;;;1431978;41;20433;-83
2021/06/10 07:59:05;;;;;;;10.88;8.55;;;;;;;;;;1422429;41;20791;-84
2021/06/10 08:00:08;;;;;;;11.90;8.13;;;;;;;;;;1432864;41;20450;-84
2021/06/10 08:01:14;;;;;;;12.48;8.35;;;;;;;;;;1437349;41;20815;-82
2021/06/10 08:02:16;;;;;;;13.90;8.23;;;;;;;;;;1437636;41;20425;-82
2021/06/10 08:03:20;;;;;;;9.63;7.85;;;;;;;;;;1437753;41;20425;-83
2021/06/10 08:04:22;;;;;;;11.57;8.67;;;;;;;;;;1438655;41;20478;-85
2021/06/10 08:05:25;;;;;;;12.25;6.97;;;;;;;;;;1431525;41;20445;-82
2021/06/10 08:06:26;;;;;;;9.85;6.85;;;;;;;;;;1426658;41;20456;-83
2021/06/10 08:07:28;;;;;;;11.90;6.60;;;;;;;;;;1431543;41;20852;-83
2021/06/10 08:08:32;;;;;;;10.02;6.78;;;;;;;;;;1434634;41;20443;-82
2021/06/10 08:09:33;;;;;;;7.45;5.88;;;;;;;;;;1437745;41;21059;-83
2021/06/10 08:10:35;;;;;;;8.02;6.28;;;;;;;;;;1437244;41;20494;-83
2021/06/10 08:11:38;;;;;;;10.40;7.50;;;;;;;;;;1429449;41;20700;-83
2021/06/10 08:12:40;;;;;;;12.27;7.78;;;;;;;;;;1429539;41;20532;-83
2021/06/10 08:13:42;;;;;;;8.65;6.47;;;;;;;;;;1437573;41;20439;-84
2021/06/10 08:14:43;;;;;;;12.27;7.65;;;;;;;;;;1434519;41;20438;-85
2021/06/10 08:15:45;;;;;;;10.48;7.78;;;;;;;;;;1437823;41;20438;-84
2021/06/10 08:16:48;;;;;;;8.98;7.95;;;;;;;;;;1433088;41;20444;-84
2021/06/10 08:17:49;;;;;;;12.73;8.15;;;;;;;;;;1433145;41;20429;-84
2021/06/10 08:18:52;;;;;;;11.57;8.30;;;;;;;;;;1434101;41;20433;-85
2021/06/10 08:19:54;;;;;;;12.50;8.82;;;;;;;;;;1438121;41;20454;-86
2021/06/10 08:20:58;;;;;;;11.82;7.80;;;;;;;;;;1434155;41;20431;-86
2021/06/10 08:22:00;;;;;;;8.90;7.72;;;;;;;;;;1433718;41;20444;-84
2021/06/10 08:23:02;;;;;;;9.85;6.25;;;;;;;;;;1432755;41;20501;-85
2021/06/10 08:24:04;;;;;;;8.95;6.38;;;;;;;;;;1433733;41;20425;-85
2021/06/10 08:25:07;;;;;;;11.30;5.70;;;;;;;;;;1436471;41;20431;-85
2021/06/10 08:26:09;;;;;;;12.15;6.10;;;;;;;;;;1430379;41;20974;-86
2021/06/10 08:27:10;;;;;;;8.32;6.55;;;;;;;;;;1426125;41;20958;-87
2021/06/10 08:28:13;;;;;;;10.55;6.95;;;;;;;;;;1424778;41;20433;-87
2021/06/10 08:29:17;;;;;;;9.25;6.22;;;;;;;;;;1427352;41;20436;-86
2021/06/10 08:30:19;;;;;;;9.40;6.20;;;;;;;;;;1434300;41;20406;-87
2021/06/10 08:31:22;;;;;;;9.52;5.88;;;;;;;;;;1438131;41;20464;-85
2021/06/10 08:32:24;;;;;;;7.68;5.75;;;;;;;;;;1434510;41;20533;-85
2021/06/10 08:33:26;;;;;;;10.90;6.38;;;;;;;;;;1434319;41;20421;-86
2021/06/10 08:34:27;;;;;;;9.35;6.00;;;;;;;;;;1438088;41;20471;-85
2021/06/10 08:35:29;;;;;;;10.98;6.30;;;;;;;;;;1433905;41;20458;-85